<?xml version="1.0" encoding="UTF-8" standalone="no" ?>
<gpx xmlns="http://www.topografix.com/GPX/1/1" xmlns:xsi="http://www.w3.org/2001/XMLSchema-instance" xsi:schemaLocation="http://www.topografix.com/GPX/1/1 http://www.topografix.com/GPX/1/1/gpx.xsd" version="1.1" creator="VisuGPX - https://www.visugpx.com">
  <metadata>
    <name>Sainte Victoire </name>
    <desc><![CDATA[grp_trc:[nouvelles]]]></desc>
  </metadata>
  <trk>
    <name><![CDATA[18 févr. 2019 à 07:21:03]]></name>
    <cmt><![CDATA[18 févr. 2019 à 07:21:03]]></cmt>
    <trkseg>
      <trkpt lat="45.05196" lon="2.79358">
        <ele>1397</ele>
        <time>2019-02-18T06:21:03Z</time>
      </trkpt>
      <trkpt lat="45.05187" lon="2.79365">
        <ele>1396</ele>
        <time>2019-02-18T06:23:21Z</time>
      </trkpt>
      <trkpt lat="45.05194" lon="2.7938">
        <ele>1395</ele>
        <time>2019-02-18T06:23:59Z</time>
      </trkpt>
      <trkpt lat="45.05193" lon="2.79384">
        <ele>1394</ele>
        <time>2019-02-18T06:24:03Z</time>
      </trkpt>
      <trkpt lat="45.05199" lon="2.79388">
        <ele>1396</ele>
        <time>2019-02-18T06:24:16Z</time>
      </trkpt>
      <trkpt lat="45.05205" lon="2.79387">
        <ele>1396</ele>
        <time>2019-02-18T06:24:34Z</time>
      </trkpt>
      <trkpt lat="45.0521" lon="2.79381">
        <ele>1395</ele>
        <time>2019-02-18T06:24:46Z</time>
      </trkpt>
      <trkpt lat="45.05205" lon="2.79382">
        <ele>1392</ele>
        <time>2019-02-18T06:27:46Z</time>
      </trkpt>
      <trkpt lat="45.05203" lon="2.79374">
        <ele>1391</ele>
        <time>2019-02-18T06:28:18Z</time>
      </trkpt>
      <trkpt lat="45.05207" lon="2.79367">
        <ele>1391</ele>
        <time>2019-02-18T06:28:22Z</time>
      </trkpt>
      <trkpt lat="45.05212" lon="2.7934">
        <ele>1391</ele>
        <time>2019-02-18T06:28:34Z</time>
      </trkpt>
      <trkpt lat="45.05201" lon="2.79308">
        <ele>1392</ele>
        <time>2019-02-18T06:28:54Z</time>
      </trkpt>
      <trkpt lat="45.05189" lon="2.79292">
        <ele>1394</ele>
        <time>2019-02-18T06:29:08Z</time>
      </trkpt>
      <trkpt lat="45.05184" lon="2.79287">
        <ele>1395</ele>
        <time>2019-02-18T06:29:14Z</time>
      </trkpt>
      <trkpt lat="45.05179" lon="2.79284">
        <ele>1395</ele>
        <time>2019-02-18T06:29:18Z</time>
      </trkpt>
      <trkpt lat="45.05176" lon="2.79277">
        <ele>1395</ele>
        <time>2019-02-18T06:29:23Z</time>
      </trkpt>
      <trkpt lat="45.0517" lon="2.79277">
        <ele>1395</ele>
        <time>2019-02-18T06:29:27Z</time>
      </trkpt>
      <trkpt lat="45.05165" lon="2.79271">
        <ele>1396</ele>
        <time>2019-02-18T06:29:33Z</time>
      </trkpt>
      <trkpt lat="45.0516" lon="2.79266">
        <ele>1396</ele>
        <time>2019-02-18T06:29:37Z</time>
      </trkpt>
      <trkpt lat="45.05146" lon="2.79249">
        <ele>1398</ele>
        <time>2019-02-18T06:29:51Z</time>
      </trkpt>
      <trkpt lat="45.05136" lon="2.79245">
        <ele>1399</ele>
        <time>2019-02-18T06:30:01Z</time>
      </trkpt>
      <trkpt lat="45.05131" lon="2.79239">
        <ele>1399</ele>
        <time>2019-02-18T06:30:06Z</time>
      </trkpt>
      <trkpt lat="45.0513" lon="2.7923">
        <ele>1400</ele>
        <time>2019-02-18T06:30:11Z</time>
      </trkpt>
      <trkpt lat="45.05121" lon="2.79215">
        <ele>1402</ele>
        <time>2019-02-18T06:30:25Z</time>
      </trkpt>
      <trkpt lat="45.05116" lon="2.79212">
        <ele>1403</ele>
        <time>2019-02-18T06:30:30Z</time>
      </trkpt>
      <trkpt lat="45.05111" lon="2.79204">
        <ele>1404</ele>
        <time>2019-02-18T06:30:37Z</time>
      </trkpt>
      <trkpt lat="45.05109" lon="2.79196">
        <ele>1405</ele>
        <time>2019-02-18T06:30:43Z</time>
      </trkpt>
      <trkpt lat="45.05101" lon="2.79192">
        <ele>1407</ele>
        <time>2019-02-18T06:30:53Z</time>
      </trkpt>
      <trkpt lat="45.05095" lon="2.79184">
        <ele>1409</ele>
        <time>2019-02-18T06:31:03Z</time>
      </trkpt>
      <trkpt lat="45.05088" lon="2.79176">
        <ele>1412</ele>
        <time>2019-02-18T06:31:15Z</time>
      </trkpt>
      <trkpt lat="45.05071" lon="2.79154">
        <ele>1417</ele>
        <time>2019-02-18T06:31:42Z</time>
      </trkpt>
      <trkpt lat="45.05064" lon="2.7915">
        <ele>1419</ele>
        <time>2019-02-18T06:31:51Z</time>
      </trkpt>
      <trkpt lat="45.05064" lon="2.79139">
        <ele>1420</ele>
        <time>2019-02-18T06:31:59Z</time>
      </trkpt>
      <trkpt lat="45.05039" lon="2.79112">
        <ele>1426</ele>
        <time>2019-02-18T06:32:39Z</time>
      </trkpt>
      <trkpt lat="45.05024" lon="2.79099">
        <ele>1430</ele>
        <time>2019-02-18T06:33:06Z</time>
      </trkpt>
      <trkpt lat="45.05019" lon="2.79089">
        <ele>1433</ele>
        <time>2019-02-18T06:33:18Z</time>
      </trkpt>
      <trkpt lat="45.05009" lon="2.79084">
        <ele>1436</ele>
        <time>2019-02-18T06:33:36Z</time>
      </trkpt>
      <trkpt lat="45.04993" lon="2.79064">
        <ele>1441</ele>
        <time>2019-02-18T06:34:02Z</time>
      </trkpt>
      <trkpt lat="45.04985" lon="2.79041">
        <ele>1444</ele>
        <time>2019-02-18T06:34:22Z</time>
      </trkpt>
      <trkpt lat="45.04977" lon="2.79036">
        <ele>1445</ele>
        <time>2019-02-18T06:34:30Z</time>
      </trkpt>
      <trkpt lat="45.04971" lon="2.79037">
        <ele>1447</ele>
        <time>2019-02-18T06:34:40Z</time>
      </trkpt>
      <trkpt lat="45.04961" lon="2.79051">
        <ele>1450</ele>
        <time>2019-02-18T06:34:58Z</time>
      </trkpt>
      <trkpt lat="45.04949" lon="2.79059">
        <ele>1452</ele>
        <time>2019-02-18T06:35:13Z</time>
      </trkpt>
      <trkpt lat="45.0494" lon="2.79072">
        <ele>1455</ele>
        <time>2019-02-18T06:35:28Z</time>
      </trkpt>
      <trkpt lat="45.04929" lon="2.79084">
        <ele>1458</ele>
        <time>2019-02-18T06:35:43Z</time>
      </trkpt>
      <trkpt lat="45.04924" lon="2.79086">
        <ele>1458</ele>
        <time>2019-02-18T06:35:48Z</time>
      </trkpt>
      <trkpt lat="45.04916" lon="2.79085">
        <ele>1460</ele>
        <time>2019-02-18T06:35:59Z</time>
      </trkpt>
      <trkpt lat="45.04911" lon="2.79088">
        <ele>1462</ele>
        <time>2019-02-18T06:36:06Z</time>
      </trkpt>
      <trkpt lat="45.04897" lon="2.79098">
        <ele>1465</ele>
        <time>2019-02-18T06:36:25Z</time>
      </trkpt>
      <trkpt lat="45.0489" lon="2.79095">
        <ele>1468</ele>
        <time>2019-02-18T06:36:39Z</time>
      </trkpt>
      <trkpt lat="45.04884" lon="2.79099">
        <ele>1469</ele>
        <time>2019-02-18T06:36:49Z</time>
      </trkpt>
      <trkpt lat="45.04878" lon="2.79103">
        <ele>1472</ele>
        <time>2019-02-18T06:37:04Z</time>
      </trkpt>
      <trkpt lat="45.04872" lon="2.79106">
        <ele>1473</ele>
        <time>2019-02-18T06:37:19Z</time>
      </trkpt>
      <trkpt lat="45.04866" lon="2.79108">
        <ele>1476</ele>
        <time>2019-02-18T06:37:31Z</time>
      </trkpt>
      <trkpt lat="45.04858" lon="2.79102">
        <ele>1479</ele>
        <time>2019-02-18T06:37:49Z</time>
      </trkpt>
      <trkpt lat="45.04854" lon="2.79095">
        <ele>1480</ele>
        <time>2019-02-18T06:38:07Z</time>
      </trkpt>
      <trkpt lat="45.0485" lon="2.79061">
        <ele>1486</ele>
        <time>2019-02-18T06:38:50Z</time>
      </trkpt>
      <trkpt lat="45.04849" lon="2.79049">
        <ele>1489</ele>
        <time>2019-02-18T06:39:08Z</time>
      </trkpt>
      <trkpt lat="45.04849" lon="2.79038">
        <ele>1492</ele>
        <time>2019-02-18T06:39:26Z</time>
      </trkpt>
      <trkpt lat="45.04844" lon="2.79024">
        <ele>1495</ele>
        <time>2019-02-18T06:39:39Z</time>
      </trkpt>
      <trkpt lat="45.04846" lon="2.79015">
        <ele>1497</ele>
        <time>2019-02-18T06:39:52Z</time>
      </trkpt>
      <trkpt lat="45.04842" lon="2.78987">
        <ele>1501</ele>
        <time>2019-02-18T06:40:25Z</time>
      </trkpt>
      <trkpt lat="45.04839" lon="2.78979">
        <ele>1503</ele>
        <time>2019-02-18T06:40:37Z</time>
      </trkpt>
      <trkpt lat="45.04837" lon="2.78971">
        <ele>1505</ele>
        <time>2019-02-18T06:40:55Z</time>
      </trkpt>
      <trkpt lat="45.04828" lon="2.78963">
        <ele>1507</ele>
        <time>2019-02-18T06:41:14Z</time>
      </trkpt>
      <trkpt lat="45.04821" lon="2.7896">
        <ele>1508</ele>
        <time>2019-02-18T06:41:26Z</time>
      </trkpt>
      <trkpt lat="45.04814" lon="2.78955">
        <ele>1510</ele>
        <time>2019-02-18T06:41:38Z</time>
      </trkpt>
      <trkpt lat="45.04809" lon="2.78951">
        <ele>1510</ele>
        <time>2019-02-18T06:41:44Z</time>
      </trkpt>
      <trkpt lat="45.04803" lon="2.78945">
        <ele>1512</ele>
        <time>2019-02-18T06:41:53Z</time>
      </trkpt>
      <trkpt lat="45.04798" lon="2.78933">
        <ele>1514</ele>
        <time>2019-02-18T06:42:05Z</time>
      </trkpt>
      <trkpt lat="45.04791" lon="2.78925">
        <ele>1514</ele>
        <time>2019-02-18T06:42:17Z</time>
      </trkpt>
      <trkpt lat="45.04778" lon="2.78928">
        <ele>1515</ele>
        <time>2019-02-18T06:42:36Z</time>
      </trkpt>
      <trkpt lat="45.04772" lon="2.78928">
        <ele>1516</ele>
        <time>2019-02-18T06:42:45Z</time>
      </trkpt>
      <trkpt lat="45.04767" lon="2.78922">
        <ele>1517</ele>
        <time>2019-02-18T06:42:52Z</time>
      </trkpt>
      <trkpt lat="45.04761" lon="2.78922">
        <ele>1517</ele>
        <time>2019-02-18T06:42:58Z</time>
      </trkpt>
      <trkpt lat="45.04754" lon="2.78918">
        <ele>1517</ele>
        <time>2019-02-18T06:43:06Z</time>
      </trkpt>
      <trkpt lat="45.04749" lon="2.78916">
        <ele>1518</ele>
        <time>2019-02-18T06:43:14Z</time>
      </trkpt>
      <trkpt lat="45.04732" lon="2.7887">
        <ele>1521</ele>
        <time>2019-02-18T06:43:53Z</time>
      </trkpt>
      <trkpt lat="45.04728" lon="2.7886">
        <ele>1523</ele>
        <time>2019-02-18T06:44:03Z</time>
      </trkpt>
      <trkpt lat="45.04723" lon="2.7885">
        <ele>1523</ele>
        <time>2019-02-18T06:44:16Z</time>
      </trkpt>
      <trkpt lat="45.04712" lon="2.78843">
        <ele>1526</ele>
        <time>2019-02-18T06:44:37Z</time>
      </trkpt>
      <trkpt lat="45.04706" lon="2.78834">
        <ele>1527</ele>
        <time>2019-02-18T06:44:49Z</time>
      </trkpt>
      <trkpt lat="45.04692" lon="2.78819">
        <ele>1530</ele>
        <time>2019-02-18T06:45:10Z</time>
      </trkpt>
      <trkpt lat="45.04684" lon="2.78813">
        <ele>1531</ele>
        <time>2019-02-18T06:45:21Z</time>
      </trkpt>
      <trkpt lat="45.04674" lon="2.78803">
        <ele>1532</ele>
        <time>2019-02-18T06:45:36Z</time>
      </trkpt>
      <trkpt lat="45.04671" lon="2.78793">
        <ele>1534</ele>
        <time>2019-02-18T06:45:49Z</time>
      </trkpt>
      <trkpt lat="45.04669" lon="2.78785">
        <ele>1535</ele>
        <time>2019-02-18T06:45:55Z</time>
      </trkpt>
      <trkpt lat="45.04665" lon="2.78778">
        <ele>1535</ele>
        <time>2019-02-18T06:46:04Z</time>
      </trkpt>
      <trkpt lat="45.04658" lon="2.78764">
        <ele>1536</ele>
        <time>2019-02-18T06:46:17Z</time>
      </trkpt>
      <trkpt lat="45.04652" lon="2.78756">
        <ele>1536</ele>
        <time>2019-02-18T06:46:28Z</time>
      </trkpt>
      <trkpt lat="45.04645" lon="2.78752">
        <ele>1537</ele>
        <time>2019-02-18T06:46:39Z</time>
      </trkpt>
      <trkpt lat="45.04633" lon="2.78734">
        <ele>1540</ele>
        <time>2019-02-18T06:47:01Z</time>
      </trkpt>
      <trkpt lat="45.04628" lon="2.78731">
        <ele>1542</ele>
        <time>2019-02-18T06:47:15Z</time>
      </trkpt>
      <trkpt lat="45.04624" lon="2.78723">
        <ele>1542</ele>
        <time>2019-02-18T06:47:27Z</time>
      </trkpt>
      <trkpt lat="45.04616" lon="2.78716">
        <ele>1543</ele>
        <time>2019-02-18T06:47:39Z</time>
      </trkpt>
      <trkpt lat="45.04613" lon="2.78707">
        <ele>1544</ele>
        <time>2019-02-18T06:47:51Z</time>
      </trkpt>
      <trkpt lat="45.0461" lon="2.78696">
        <ele>1546</ele>
        <time>2019-02-18T06:48:03Z</time>
      </trkpt>
      <trkpt lat="45.04602" lon="2.78689">
        <ele>1546</ele>
        <time>2019-02-18T06:48:13Z</time>
      </trkpt>
      <trkpt lat="45.04593" lon="2.78684">
        <ele>1547</ele>
        <time>2019-02-18T06:48:28Z</time>
      </trkpt>
      <trkpt lat="45.04586" lon="2.78666">
        <ele>1552</ele>
        <time>2019-02-18T06:48:52Z</time>
      </trkpt>
      <trkpt lat="45.04587" lon="2.78644">
        <ele>1555</ele>
        <time>2019-02-18T06:49:16Z</time>
      </trkpt>
      <trkpt lat="45.04581" lon="2.78623">
        <ele>1557</ele>
        <time>2019-02-18T06:49:40Z</time>
      </trkpt>
      <trkpt lat="45.04578" lon="2.78614">
        <ele>1556</ele>
        <time>2019-02-18T06:49:48Z</time>
      </trkpt>
      <trkpt lat="45.04571" lon="2.78609">
        <ele>1558</ele>
        <time>2019-02-18T06:50:00Z</time>
      </trkpt>
      <trkpt lat="45.04568" lon="2.78597">
        <ele>1558</ele>
        <time>2019-02-18T06:50:13Z</time>
      </trkpt>
      <trkpt lat="45.04564" lon="2.78585">
        <ele>1559</ele>
        <time>2019-02-18T06:50:25Z</time>
      </trkpt>
      <trkpt lat="45.0455" lon="2.78564">
        <ele>1562</ele>
        <time>2019-02-18T06:50:51Z</time>
      </trkpt>
      <trkpt lat="45.04542" lon="2.78561">
        <ele>1562</ele>
        <time>2019-02-18T06:50:58Z</time>
      </trkpt>
      <trkpt lat="45.04537" lon="2.78554">
        <ele>1563</ele>
        <time>2019-02-18T06:51:04Z</time>
      </trkpt>
      <trkpt lat="45.04533" lon="2.78555">
        <ele>1564</ele>
        <time>2019-02-18T06:52:01Z</time>
      </trkpt>
      <trkpt lat="45.04529" lon="2.78545">
        <ele>1567</ele>
        <time>2019-02-18T06:52:14Z</time>
      </trkpt>
      <trkpt lat="45.04529" lon="2.78534">
        <ele>1569</ele>
        <time>2019-02-18T06:52:27Z</time>
      </trkpt>
      <trkpt lat="45.04531" lon="2.78521">
        <ele>1572</ele>
        <time>2019-02-18T06:52:42Z</time>
      </trkpt>
      <trkpt lat="45.04536" lon="2.7851">
        <ele>1574</ele>
        <time>2019-02-18T06:53:06Z</time>
      </trkpt>
      <trkpt lat="45.04535" lon="2.78503">
        <ele>1576</ele>
        <time>2019-02-18T06:53:18Z</time>
      </trkpt>
      <trkpt lat="45.04534" lon="2.78486">
        <ele>1578</ele>
        <time>2019-02-18T06:53:35Z</time>
      </trkpt>
      <trkpt lat="45.04533" lon="2.78477">
        <ele>1579</ele>
        <time>2019-02-18T06:53:46Z</time>
      </trkpt>
      <trkpt lat="45.04536" lon="2.78459">
        <ele>1583</ele>
        <time>2019-02-18T06:54:10Z</time>
      </trkpt>
      <trkpt lat="45.04541" lon="2.78453">
        <ele>1584</ele>
        <time>2019-02-18T06:54:22Z</time>
      </trkpt>
      <trkpt lat="45.04541" lon="2.78444">
        <ele>1586</ele>
        <time>2019-02-18T06:54:34Z</time>
      </trkpt>
      <trkpt lat="45.04547" lon="2.78439">
        <ele>1589</ele>
        <time>2019-02-18T06:54:47Z</time>
      </trkpt>
      <trkpt lat="45.04552" lon="2.78436">
        <ele>1592</ele>
        <time>2019-02-18T06:54:59Z</time>
      </trkpt>
      <trkpt lat="45.04557" lon="2.7843">
        <ele>1593</ele>
        <time>2019-02-18T06:55:11Z</time>
      </trkpt>
      <trkpt lat="45.04562" lon="2.78426">
        <ele>1595</ele>
        <time>2019-02-18T06:55:23Z</time>
      </trkpt>
      <trkpt lat="45.04563" lon="2.78417">
        <ele>1597</ele>
        <time>2019-02-18T06:55:35Z</time>
      </trkpt>
      <trkpt lat="45.04567" lon="2.78407">
        <ele>1599</ele>
        <time>2019-02-18T06:55:53Z</time>
      </trkpt>
      <trkpt lat="45.04565" lon="2.78387">
        <ele>1603</ele>
        <time>2019-02-18T06:56:16Z</time>
      </trkpt>
      <trkpt lat="45.04562" lon="2.78379">
        <ele>1605</ele>
        <time>2019-02-18T06:56:30Z</time>
      </trkpt>
      <trkpt lat="45.04565" lon="2.7837">
        <ele>1607</ele>
        <time>2019-02-18T06:56:42Z</time>
      </trkpt>
      <trkpt lat="45.04562" lon="2.78341">
        <ele>1611</ele>
        <time>2019-02-18T06:57:14Z</time>
      </trkpt>
      <trkpt lat="45.04561" lon="2.78331">
        <ele>1613</ele>
        <time>2019-02-18T06:57:26Z</time>
      </trkpt>
      <trkpt lat="45.04561" lon="2.78322">
        <ele>1614</ele>
        <time>2019-02-18T06:57:33Z</time>
      </trkpt>
      <trkpt lat="45.04556" lon="2.78313">
        <ele>1615</ele>
        <time>2019-02-18T06:57:46Z</time>
      </trkpt>
      <trkpt lat="45.04554" lon="2.78304">
        <ele>1616</ele>
        <time>2019-02-18T06:57:52Z</time>
      </trkpt>
      <trkpt lat="45.04554" lon="2.78294">
        <ele>1617</ele>
        <time>2019-02-18T06:58:04Z</time>
      </trkpt>
      <trkpt lat="45.04555" lon="2.78285">
        <ele>1619</ele>
        <time>2019-02-18T06:58:15Z</time>
      </trkpt>
      <trkpt lat="45.04555" lon="2.78274">
        <ele>1620</ele>
        <time>2019-02-18T06:58:25Z</time>
      </trkpt>
      <trkpt lat="45.04552" lon="2.78264">
        <ele>1621</ele>
        <time>2019-02-18T06:58:37Z</time>
      </trkpt>
      <trkpt lat="45.04549" lon="2.78244">
        <ele>1623</ele>
        <time>2019-02-18T06:59:00Z</time>
      </trkpt>
      <trkpt lat="45.04545" lon="2.78225">
        <ele>1626</ele>
        <time>2019-02-18T06:59:24Z</time>
      </trkpt>
      <trkpt lat="45.04545" lon="2.78214">
        <ele>1628</ele>
        <time>2019-02-18T06:59:35Z</time>
      </trkpt>
      <trkpt lat="45.04558" lon="2.78194">
        <ele>1632</ele>
        <time>2019-02-18T07:00:12Z</time>
      </trkpt>
      <trkpt lat="45.04559" lon="2.78189">
        <ele>1631</ele>
        <time>2019-02-18T07:00:16Z</time>
      </trkpt>
      <trkpt lat="45.04563" lon="2.78177">
        <ele>1633</ele>
        <time>2019-02-18T07:00:29Z</time>
      </trkpt>
      <trkpt lat="45.04568" lon="2.78165">
        <ele>1633</ele>
        <time>2019-02-18T07:00:41Z</time>
      </trkpt>
      <trkpt lat="45.0458" lon="2.78146">
        <ele>1636</ele>
        <time>2019-02-18T07:00:57Z</time>
      </trkpt>
      <trkpt lat="45.04597" lon="2.78132">
        <ele>1638</ele>
        <time>2019-02-18T07:01:15Z</time>
      </trkpt>
      <trkpt lat="45.04602" lon="2.78123">
        <ele>1638</ele>
        <time>2019-02-18T07:01:22Z</time>
      </trkpt>
      <trkpt lat="45.04618" lon="2.78107">
        <ele>1637</ele>
        <time>2019-02-18T07:01:39Z</time>
      </trkpt>
      <trkpt lat="45.04621" lon="2.781">
        <ele>1637</ele>
        <time>2019-02-18T07:01:43Z</time>
      </trkpt>
      <trkpt lat="45.04643" lon="2.78063">
        <ele>1638</ele>
        <time>2019-02-18T07:02:14Z</time>
      </trkpt>
      <trkpt lat="45.04646" lon="2.78057">
        <ele>1638</ele>
        <time>2019-02-18T07:02:18Z</time>
      </trkpt>
      <trkpt lat="45.04651" lon="2.78042">
        <ele>1638</ele>
        <time>2019-02-18T07:02:28Z</time>
      </trkpt>
      <trkpt lat="45.0466" lon="2.7803">
        <ele>1639</ele>
        <time>2019-02-18T07:02:39Z</time>
      </trkpt>
      <trkpt lat="45.04662" lon="2.78022">
        <ele>1639</ele>
        <time>2019-02-18T07:02:44Z</time>
      </trkpt>
      <trkpt lat="45.04664" lon="2.78014">
        <ele>1639</ele>
        <time>2019-02-18T07:02:49Z</time>
      </trkpt>
      <trkpt lat="45.04672" lon="2.78002">
        <ele>1639</ele>
        <time>2019-02-18T07:03:01Z</time>
      </trkpt>
      <trkpt lat="45.04685" lon="2.77985">
        <ele>1640</ele>
        <time>2019-02-18T07:03:15Z</time>
      </trkpt>
      <trkpt lat="45.04694" lon="2.77962">
        <ele>1639</ele>
        <time>2019-02-18T07:03:29Z</time>
      </trkpt>
      <trkpt lat="45.04698" lon="2.77957">
        <ele>1640</ele>
        <time>2019-02-18T07:03:35Z</time>
      </trkpt>
      <trkpt lat="45.04702" lon="2.77949">
        <ele>1640</ele>
        <time>2019-02-18T07:03:40Z</time>
      </trkpt>
      <trkpt lat="45.04706" lon="2.7794">
        <ele>1641</ele>
        <time>2019-02-18T07:03:48Z</time>
      </trkpt>
      <trkpt lat="45.04712" lon="2.77937">
        <ele>1641</ele>
        <time>2019-02-18T07:03:53Z</time>
      </trkpt>
      <trkpt lat="45.04721" lon="2.77927">
        <ele>1642</ele>
        <time>2019-02-18T07:04:04Z</time>
      </trkpt>
      <trkpt lat="45.04727" lon="2.77925">
        <ele>1643</ele>
        <time>2019-02-18T07:04:09Z</time>
      </trkpt>
      <trkpt lat="45.04745" lon="2.77923">
        <ele>1645</ele>
        <time>2019-02-18T07:04:22Z</time>
      </trkpt>
      <trkpt lat="45.04751" lon="2.7792">
        <ele>1644</ele>
        <time>2019-02-18T07:04:27Z</time>
      </trkpt>
      <trkpt lat="45.04755" lon="2.77915">
        <ele>1643</ele>
        <time>2019-02-18T07:04:31Z</time>
      </trkpt>
      <trkpt lat="45.04761" lon="2.77912">
        <ele>1644</ele>
        <time>2019-02-18T07:04:37Z</time>
      </trkpt>
      <trkpt lat="45.04778" lon="2.77896">
        <ele>1647</ele>
        <time>2019-02-18T07:04:57Z</time>
      </trkpt>
      <trkpt lat="45.0479" lon="2.7789">
        <ele>1647</ele>
        <time>2019-02-18T07:05:07Z</time>
      </trkpt>
      <trkpt lat="45.04796" lon="2.77887">
        <ele>1646</ele>
        <time>2019-02-18T07:05:13Z</time>
      </trkpt>
      <trkpt lat="45.04801" lon="2.77881">
        <ele>1647</ele>
        <time>2019-02-18T07:05:18Z</time>
      </trkpt>
      <trkpt lat="45.04805" lon="2.77875">
        <ele>1647</ele>
        <time>2019-02-18T07:05:22Z</time>
      </trkpt>
      <trkpt lat="45.04807" lon="2.77868">
        <ele>1644</ele>
        <time>2019-02-18T07:05:31Z</time>
      </trkpt>
      <trkpt lat="45.04813" lon="2.77866">
        <ele>1644</ele>
        <time>2019-02-18T07:05:35Z</time>
      </trkpt>
      <trkpt lat="45.04819" lon="2.77868">
        <ele>1644</ele>
        <time>2019-02-18T07:05:40Z</time>
      </trkpt>
      <trkpt lat="45.04836" lon="2.77876">
        <ele>1644</ele>
        <time>2019-02-18T07:05:53Z</time>
      </trkpt>
      <trkpt lat="45.04856" lon="2.77871">
        <ele>1646</ele>
        <time>2019-02-18T07:06:11Z</time>
      </trkpt>
      <trkpt lat="45.04874" lon="2.77865">
        <ele>1646</ele>
        <time>2019-02-18T07:06:26Z</time>
      </trkpt>
      <trkpt lat="45.04897" lon="2.77858">
        <ele>1642</ele>
        <time>2019-02-18T07:06:43Z</time>
      </trkpt>
      <trkpt lat="45.0493" lon="2.77836">
        <ele>1637</ele>
        <time>2019-02-18T07:07:08Z</time>
      </trkpt>
      <trkpt lat="45.0494" lon="2.77826">
        <ele>1635</ele>
        <time>2019-02-18T07:07:19Z</time>
      </trkpt>
      <trkpt lat="45.04955" lon="2.77813">
        <ele>1633</ele>
        <time>2019-02-18T07:07:32Z</time>
      </trkpt>
      <trkpt lat="45.04961" lon="2.77812">
        <ele>1633</ele>
        <time>2019-02-18T07:07:38Z</time>
      </trkpt>
      <trkpt lat="45.04967" lon="2.77805">
        <ele>1631</ele>
        <time>2019-02-18T07:07:44Z</time>
      </trkpt>
      <trkpt lat="45.0497" lon="2.77799">
        <ele>1631</ele>
        <time>2019-02-18T07:07:48Z</time>
      </trkpt>
      <trkpt lat="45.04976" lon="2.77794">
        <ele>1630</ele>
        <time>2019-02-18T07:07:53Z</time>
      </trkpt>
      <trkpt lat="45.05002" lon="2.77754">
        <ele>1619</ele>
        <time>2019-02-18T07:08:24Z</time>
      </trkpt>
      <trkpt lat="45.05019" lon="2.77741">
        <ele>1616</ele>
        <time>2019-02-18T07:08:38Z</time>
      </trkpt>
      <trkpt lat="45.05024" lon="2.77737">
        <ele>1616</ele>
        <time>2019-02-18T07:08:43Z</time>
      </trkpt>
      <trkpt lat="45.0503" lon="2.77734">
        <ele>1616</ele>
        <time>2019-02-18T07:08:48Z</time>
      </trkpt>
      <trkpt lat="45.05034" lon="2.77729">
        <ele>1615</ele>
        <time>2019-02-18T07:08:53Z</time>
      </trkpt>
      <trkpt lat="45.0504" lon="2.77727">
        <ele>1615</ele>
        <time>2019-02-18T07:08:57Z</time>
      </trkpt>
      <trkpt lat="45.05046" lon="2.77722">
        <ele>1614</ele>
        <time>2019-02-18T07:09:01Z</time>
      </trkpt>
      <trkpt lat="45.05057" lon="2.77714">
        <ele>1613</ele>
        <time>2019-02-18T07:09:12Z</time>
      </trkpt>
      <trkpt lat="45.05062" lon="2.77709">
        <ele>1613</ele>
        <time>2019-02-18T07:09:17Z</time>
      </trkpt>
      <trkpt lat="45.05071" lon="2.77698">
        <ele>1612</ele>
        <time>2019-02-18T07:09:27Z</time>
      </trkpt>
      <trkpt lat="45.05075" lon="2.77694">
        <ele>1612</ele>
        <time>2019-02-18T07:09:32Z</time>
      </trkpt>
      <trkpt lat="45.05078" lon="2.77686">
        <ele>1610</ele>
        <time>2019-02-18T07:09:37Z</time>
      </trkpt>
      <trkpt lat="45.05084" lon="2.77683">
        <ele>1610</ele>
        <time>2019-02-18T07:09:43Z</time>
      </trkpt>
      <trkpt lat="45.05091" lon="2.77681">
        <ele>1609</ele>
        <time>2019-02-18T07:09:52Z</time>
      </trkpt>
      <trkpt lat="45.05109" lon="2.77668">
        <ele>1601</ele>
        <time>2019-02-18T07:10:15Z</time>
      </trkpt>
      <trkpt lat="45.05118" lon="2.77663">
        <ele>1596</ele>
        <time>2019-02-18T07:10:27Z</time>
      </trkpt>
      <trkpt lat="45.05155" lon="2.77654">
        <ele>1590</ele>
        <time>2019-02-18T07:10:57Z</time>
      </trkpt>
      <trkpt lat="45.05161" lon="2.77655">
        <ele>1590</ele>
        <time>2019-02-18T07:11:01Z</time>
      </trkpt>
      <trkpt lat="45.05166" lon="2.77653">
        <ele>1590</ele>
        <time>2019-02-18T07:11:05Z</time>
      </trkpt>
      <trkpt lat="45.05172" lon="2.7765">
        <ele>1589</ele>
        <time>2019-02-18T07:11:11Z</time>
      </trkpt>
      <trkpt lat="45.05176" lon="2.77646">
        <ele>1589</ele>
        <time>2019-02-18T07:11:14Z</time>
      </trkpt>
      <trkpt lat="45.05195" lon="2.77641">
        <ele>1590</ele>
        <time>2019-02-18T07:11:30Z</time>
      </trkpt>
      <trkpt lat="45.05205" lon="2.77639">
        <ele>1590</ele>
        <time>2019-02-18T07:11:40Z</time>
      </trkpt>
      <trkpt lat="45.0521" lon="2.77636">
        <ele>1591</ele>
        <time>2019-02-18T07:11:48Z</time>
      </trkpt>
      <trkpt lat="45.05215" lon="2.77627">
        <ele>1595</ele>
        <time>2019-02-18T07:11:55Z</time>
      </trkpt>
      <trkpt lat="45.05217" lon="2.77619">
        <ele>1597</ele>
        <time>2019-02-18T07:12:02Z</time>
      </trkpt>
      <trkpt lat="45.0522" lon="2.77611">
        <ele>1596</ele>
        <time>2019-02-18T07:12:13Z</time>
      </trkpt>
      <trkpt lat="45.05224" lon="2.77607">
        <ele>1598</ele>
        <time>2019-02-18T07:12:20Z</time>
      </trkpt>
      <trkpt lat="45.05226" lon="2.77597">
        <ele>1600</ele>
        <time>2019-02-18T07:12:30Z</time>
      </trkpt>
      <trkpt lat="45.0523" lon="2.7759">
        <ele>1598</ele>
        <time>2019-02-18T07:12:40Z</time>
      </trkpt>
      <trkpt lat="45.05236" lon="2.77585">
        <ele>1598</ele>
        <time>2019-02-18T07:12:52Z</time>
      </trkpt>
      <trkpt lat="45.0524" lon="2.7758">
        <ele>1601</ele>
        <time>2019-02-18T07:13:04Z</time>
      </trkpt>
      <trkpt lat="45.05241" lon="2.77565">
        <ele>1604</ele>
        <time>2019-02-18T07:13:16Z</time>
      </trkpt>
      <trkpt lat="45.05241" lon="2.77556">
        <ele>1603</ele>
        <time>2019-02-18T07:13:23Z</time>
      </trkpt>
      <trkpt lat="45.05244" lon="2.77546">
        <ele>1605</ele>
        <time>2019-02-18T07:13:31Z</time>
      </trkpt>
      <trkpt lat="45.05247" lon="2.77532">
        <ele>1605</ele>
        <time>2019-02-18T07:13:46Z</time>
      </trkpt>
      <trkpt lat="45.05251" lon="2.77513">
        <ele>1607</ele>
        <time>2019-02-18T07:14:00Z</time>
      </trkpt>
      <trkpt lat="45.05253" lon="2.77505">
        <ele>1607</ele>
        <time>2019-02-18T07:14:04Z</time>
      </trkpt>
      <trkpt lat="45.05258" lon="2.775">
        <ele>1606</ele>
        <time>2019-02-18T07:14:10Z</time>
      </trkpt>
      <trkpt lat="45.05262" lon="2.77494">
        <ele>1606</ele>
        <time>2019-02-18T07:14:14Z</time>
      </trkpt>
      <trkpt lat="45.05266" lon="2.77488">
        <ele>1607</ele>
        <time>2019-02-18T07:14:19Z</time>
      </trkpt>
      <trkpt lat="45.0527" lon="2.77482">
        <ele>1606</ele>
        <time>2019-02-18T07:14:24Z</time>
      </trkpt>
      <trkpt lat="45.05272" lon="2.77475">
        <ele>1605</ele>
        <time>2019-02-18T07:14:30Z</time>
      </trkpt>
      <trkpt lat="45.05283" lon="2.77452">
        <ele>1607</ele>
        <time>2019-02-18T07:14:51Z</time>
      </trkpt>
      <trkpt lat="45.05292" lon="2.77443">
        <ele>1609</ele>
        <time>2019-02-18T07:15:02Z</time>
      </trkpt>
      <trkpt lat="45.05299" lon="2.77434">
        <ele>1610</ele>
        <time>2019-02-18T07:15:11Z</time>
      </trkpt>
      <trkpt lat="45.05304" lon="2.77432">
        <ele>1610</ele>
        <time>2019-02-18T07:15:17Z</time>
      </trkpt>
      <trkpt lat="45.05308" lon="2.77425">
        <ele>1611</ele>
        <time>2019-02-18T07:15:23Z</time>
      </trkpt>
      <trkpt lat="45.05313" lon="2.77422">
        <ele>1610</ele>
        <time>2019-02-18T07:15:28Z</time>
      </trkpt>
      <trkpt lat="45.05317" lon="2.77415">
        <ele>1610</ele>
        <time>2019-02-18T07:15:32Z</time>
      </trkpt>
      <trkpt lat="45.0532" lon="2.77407">
        <ele>1611</ele>
        <time>2019-02-18T07:15:38Z</time>
      </trkpt>
      <trkpt lat="45.05324" lon="2.774">
        <ele>1611</ele>
        <time>2019-02-18T07:15:42Z</time>
      </trkpt>
      <trkpt lat="45.05341" lon="2.77376">
        <ele>1614</ele>
        <time>2019-02-18T07:16:05Z</time>
      </trkpt>
      <trkpt lat="45.05345" lon="2.7737">
        <ele>1616</ele>
        <time>2019-02-18T07:16:13Z</time>
      </trkpt>
      <trkpt lat="45.05358" lon="2.77353">
        <ele>1621</ele>
        <time>2019-02-18T07:16:37Z</time>
      </trkpt>
      <trkpt lat="45.05375" lon="2.7733">
        <ele>1622</ele>
        <time>2019-02-18T07:17:01Z</time>
      </trkpt>
      <trkpt lat="45.05384" lon="2.77327">
        <ele>1624</ele>
        <time>2019-02-18T07:17:12Z</time>
      </trkpt>
      <trkpt lat="45.05385" lon="2.77316">
        <ele>1624</ele>
        <time>2019-02-18T07:17:22Z</time>
      </trkpt>
      <trkpt lat="45.05393" lon="2.77283">
        <ele>1622</ele>
        <time>2019-02-18T07:17:46Z</time>
      </trkpt>
      <trkpt lat="45.05396" lon="2.77274">
        <ele>1623</ele>
        <time>2019-02-18T07:17:53Z</time>
      </trkpt>
      <trkpt lat="45.054" lon="2.77266">
        <ele>1624</ele>
        <time>2019-02-18T07:18:01Z</time>
      </trkpt>
      <trkpt lat="45.05404" lon="2.77256">
        <ele>1626</ele>
        <time>2019-02-18T07:18:15Z</time>
      </trkpt>
      <trkpt lat="45.05404" lon="2.77245">
        <ele>1626</ele>
        <time>2019-02-18T07:18:27Z</time>
      </trkpt>
      <trkpt lat="45.05405" lon="2.77235">
        <ele>1628</ele>
        <time>2019-02-18T07:18:38Z</time>
      </trkpt>
      <trkpt lat="45.05409" lon="2.77229">
        <ele>1631</ele>
        <time>2019-02-18T07:18:50Z</time>
      </trkpt>
      <trkpt lat="45.05409" lon="2.77219">
        <ele>1631</ele>
        <time>2019-02-18T07:19:02Z</time>
      </trkpt>
      <trkpt lat="45.05408" lon="2.77214">
        <ele>1631</ele>
        <time>2019-02-18T07:19:08Z</time>
      </trkpt>
      <trkpt lat="45.05411" lon="2.77207">
        <ele>1634</ele>
        <time>2019-02-18T07:19:19Z</time>
      </trkpt>
      <trkpt lat="45.05415" lon="2.77203">
        <ele>1636</ele>
        <time>2019-02-18T07:19:31Z</time>
      </trkpt>
      <trkpt lat="45.0542" lon="2.77198">
        <ele>1636</ele>
        <time>2019-02-18T07:19:43Z</time>
      </trkpt>
      <trkpt lat="45.05422" lon="2.7719">
        <ele>1637</ele>
        <time>2019-02-18T07:19:55Z</time>
      </trkpt>
      <trkpt lat="45.05424" lon="2.77181">
        <ele>1638</ele>
        <time>2019-02-18T07:20:07Z</time>
      </trkpt>
      <trkpt lat="45.05431" lon="2.77163">
        <ele>1640</ele>
        <time>2019-02-18T07:20:31Z</time>
      </trkpt>
      <trkpt lat="45.05432" lon="2.77154">
        <ele>1642</ele>
        <time>2019-02-18T07:20:43Z</time>
      </trkpt>
      <trkpt lat="45.05433" lon="2.77147">
        <ele>1642</ele>
        <time>2019-02-18T07:20:55Z</time>
      </trkpt>
      <trkpt lat="45.05438" lon="2.77139">
        <ele>1644</ele>
        <time>2019-02-18T07:21:07Z</time>
      </trkpt>
      <trkpt lat="45.05444" lon="2.77122">
        <ele>1646</ele>
        <time>2019-02-18T07:21:31Z</time>
      </trkpt>
      <trkpt lat="45.05453" lon="2.77094">
        <ele>1652</ele>
        <time>2019-02-18T07:22:13Z</time>
      </trkpt>
      <trkpt lat="45.05456" lon="2.77086">
        <ele>1653</ele>
        <time>2019-02-18T07:22:25Z</time>
      </trkpt>
      <trkpt lat="45.05458" lon="2.77076">
        <ele>1655</ele>
        <time>2019-02-18T07:22:43Z</time>
      </trkpt>
      <trkpt lat="45.05457" lon="2.77068">
        <ele>1657</ele>
        <time>2019-02-18T07:22:55Z</time>
      </trkpt>
      <trkpt lat="45.05461" lon="2.7706">
        <ele>1659</ele>
        <time>2019-02-18T07:23:07Z</time>
      </trkpt>
      <trkpt lat="45.05466" lon="2.7704">
        <ele>1663</ele>
        <time>2019-02-18T07:23:32Z</time>
      </trkpt>
      <trkpt lat="45.0547" lon="2.7703">
        <ele>1665</ele>
        <time>2019-02-18T07:23:44Z</time>
      </trkpt>
      <trkpt lat="45.05472" lon="2.77021">
        <ele>1664</ele>
        <time>2019-02-18T07:23:56Z</time>
      </trkpt>
      <trkpt lat="45.05476" lon="2.77015">
        <ele>1666</ele>
        <time>2019-02-18T07:24:02Z</time>
      </trkpt>
      <trkpt lat="45.05478" lon="2.77007">
        <ele>1666</ele>
        <time>2019-02-18T07:24:10Z</time>
      </trkpt>
      <trkpt lat="45.05482" lon="2.76985">
        <ele>1668</ele>
        <time>2019-02-18T07:24:31Z</time>
      </trkpt>
      <trkpt lat="45.05484" lon="2.76973">
        <ele>1669</ele>
        <time>2019-02-18T07:24:42Z</time>
      </trkpt>
      <trkpt lat="45.05487" lon="2.76968">
        <ele>1670</ele>
        <time>2019-02-18T07:24:48Z</time>
      </trkpt>
      <trkpt lat="45.05495" lon="2.7695">
        <ele>1672</ele>
        <time>2019-02-18T07:25:08Z</time>
      </trkpt>
      <trkpt lat="45.05499" lon="2.76944">
        <ele>1675</ele>
        <time>2019-02-18T07:25:20Z</time>
      </trkpt>
      <trkpt lat="45.05501" lon="2.76934">
        <ele>1677</ele>
        <time>2019-02-18T07:25:32Z</time>
      </trkpt>
      <trkpt lat="45.05508" lon="2.76928">
        <ele>1678</ele>
        <time>2019-02-18T07:25:45Z</time>
      </trkpt>
      <trkpt lat="45.05508" lon="2.7692">
        <ele>1679</ele>
        <time>2019-02-18T07:25:55Z</time>
      </trkpt>
      <trkpt lat="45.05509" lon="2.76912">
        <ele>1678</ele>
        <time>2019-02-18T07:26:00Z</time>
      </trkpt>
      <trkpt lat="45.05513" lon="2.76898">
        <ele>1681</ele>
        <time>2019-02-18T07:26:15Z</time>
      </trkpt>
      <trkpt lat="45.05514" lon="2.76885">
        <ele>1683</ele>
        <time>2019-02-18T07:26:34Z</time>
      </trkpt>
      <trkpt lat="45.05517" lon="2.76871">
        <ele>1683</ele>
        <time>2019-02-18T07:26:46Z</time>
      </trkpt>
      <trkpt lat="45.05521" lon="2.7686">
        <ele>1684</ele>
        <time>2019-02-18T07:27:01Z</time>
      </trkpt>
      <trkpt lat="45.05539" lon="2.76851">
        <ele>1689</ele>
        <time>2019-02-18T07:27:24Z</time>
      </trkpt>
      <trkpt lat="45.05542" lon="2.76843">
        <ele>1690</ele>
        <time>2019-02-18T07:27:35Z</time>
      </trkpt>
      <trkpt lat="45.05552" lon="2.76817">
        <ele>1693</ele>
        <time>2019-02-18T07:28:10Z</time>
      </trkpt>
      <trkpt lat="45.05558" lon="2.76812">
        <ele>1695</ele>
        <time>2019-02-18T07:28:22Z</time>
      </trkpt>
      <trkpt lat="45.05564" lon="2.76805">
        <ele>1697</ele>
        <time>2019-02-18T07:28:35Z</time>
      </trkpt>
      <trkpt lat="45.05566" lon="2.76801">
        <ele>1697</ele>
        <time>2019-02-18T07:28:39Z</time>
      </trkpt>
      <trkpt lat="45.05568" lon="2.76781">
        <ele>1700</ele>
        <time>2019-02-18T07:29:04Z</time>
      </trkpt>
      <trkpt lat="45.05569" lon="2.7677">
        <ele>1704</ele>
        <time>2019-02-18T07:29:22Z</time>
      </trkpt>
      <trkpt lat="45.05574" lon="2.76762">
        <ele>1705</ele>
        <time>2019-02-18T07:29:34Z</time>
      </trkpt>
      <trkpt lat="45.05575" lon="2.76744">
        <ele>1708</ele>
        <time>2019-02-18T07:29:58Z</time>
      </trkpt>
      <trkpt lat="45.05581" lon="2.76729">
        <ele>1712</ele>
        <time>2019-02-18T07:30:22Z</time>
      </trkpt>
      <trkpt lat="45.05583" lon="2.76719">
        <ele>1712</ele>
        <time>2019-02-18T07:30:34Z</time>
      </trkpt>
      <trkpt lat="45.05585" lon="2.7671">
        <ele>1714</ele>
        <time>2019-02-18T07:30:46Z</time>
      </trkpt>
      <trkpt lat="45.05583" lon="2.76698">
        <ele>1715</ele>
        <time>2019-02-18T07:30:59Z</time>
      </trkpt>
      <trkpt lat="45.05583" lon="2.7669">
        <ele>1717</ele>
        <time>2019-02-18T07:31:11Z</time>
      </trkpt>
      <trkpt lat="45.05587" lon="2.76681">
        <ele>1719</ele>
        <time>2019-02-18T07:31:23Z</time>
      </trkpt>
      <trkpt lat="45.05589" lon="2.76672">
        <ele>1719</ele>
        <time>2019-02-18T07:31:35Z</time>
      </trkpt>
      <trkpt lat="45.05589" lon="2.76664">
        <ele>1721</ele>
        <time>2019-02-18T07:31:47Z</time>
      </trkpt>
      <trkpt lat="45.05586" lon="2.76657">
        <ele>1721</ele>
        <time>2019-02-18T07:31:53Z</time>
      </trkpt>
      <trkpt lat="45.05583" lon="2.76649">
        <ele>1723</ele>
        <time>2019-02-18T07:32:06Z</time>
      </trkpt>
      <trkpt lat="45.05583" lon="2.76639">
        <ele>1724</ele>
        <time>2019-02-18T07:32:18Z</time>
      </trkpt>
      <trkpt lat="45.05587" lon="2.76626">
        <ele>1727</ele>
        <time>2019-02-18T07:32:36Z</time>
      </trkpt>
      <trkpt lat="45.05585" lon="2.76616">
        <ele>1728</ele>
        <time>2019-02-18T07:32:48Z</time>
      </trkpt>
      <trkpt lat="45.05586" lon="2.76607">
        <ele>1729</ele>
        <time>2019-02-18T07:33:00Z</time>
      </trkpt>
      <trkpt lat="45.05589" lon="2.766">
        <ele>1730</ele>
        <time>2019-02-18T07:33:12Z</time>
      </trkpt>
      <trkpt lat="45.05591" lon="2.76591">
        <ele>1732</ele>
        <time>2019-02-18T07:33:24Z</time>
      </trkpt>
      <trkpt lat="45.05597" lon="2.76573">
        <ele>1736</ele>
        <time>2019-02-18T07:33:55Z</time>
      </trkpt>
      <trkpt lat="45.05598" lon="2.76565">
        <ele>1738</ele>
        <time>2019-02-18T07:34:18Z</time>
      </trkpt>
      <trkpt lat="45.056" lon="2.76557">
        <ele>1739</ele>
        <time>2019-02-18T07:34:30Z</time>
      </trkpt>
      <trkpt lat="45.05601" lon="2.7655">
        <ele>1741</ele>
        <time>2019-02-18T07:34:42Z</time>
      </trkpt>
      <trkpt lat="45.05603" lon="2.76541">
        <ele>1743</ele>
        <time>2019-02-18T07:34:54Z</time>
      </trkpt>
      <trkpt lat="45.05601" lon="2.76531">
        <ele>1748</ele>
        <time>2019-02-18T07:35:24Z</time>
      </trkpt>
      <trkpt lat="45.05608" lon="2.7652">
        <ele>1749</ele>
        <time>2019-02-18T07:35:35Z</time>
      </trkpt>
      <trkpt lat="45.0561" lon="2.76512">
        <ele>1750</ele>
        <time>2019-02-18T07:35:49Z</time>
      </trkpt>
      <trkpt lat="45.05607" lon="2.76502">
        <ele>1753</ele>
        <time>2019-02-18T07:36:01Z</time>
      </trkpt>
      <trkpt lat="45.05607" lon="2.76494">
        <ele>1754</ele>
        <time>2019-02-18T07:36:13Z</time>
      </trkpt>
      <trkpt lat="45.05616" lon="2.76476">
        <ele>1756</ele>
        <time>2019-02-18T07:36:32Z</time>
      </trkpt>
      <trkpt lat="45.05616" lon="2.76468">
        <ele>1756</ele>
        <time>2019-02-18T07:36:40Z</time>
      </trkpt>
      <trkpt lat="45.05614" lon="2.76458">
        <ele>1757</ele>
        <time>2019-02-18T07:36:52Z</time>
      </trkpt>
      <trkpt lat="45.05611" lon="2.7645">
        <ele>1759</ele>
        <time>2019-02-18T07:37:04Z</time>
      </trkpt>
      <trkpt lat="45.05611" lon="2.76442">
        <ele>1761</ele>
        <time>2019-02-18T07:37:46Z</time>
      </trkpt>
      <trkpt lat="45.05611" lon="2.76432">
        <ele>1763</ele>
        <time>2019-02-18T07:39:59Z</time>
      </trkpt>
      <trkpt lat="45.05614" lon="2.76422">
        <ele>1765</ele>
        <time>2019-02-18T07:40:11Z</time>
      </trkpt>
      <trkpt lat="45.05614" lon="2.76413">
        <ele>1767</ele>
        <time>2019-02-18T07:40:29Z</time>
      </trkpt>
      <trkpt lat="45.05619" lon="2.76404">
        <ele>1770</ele>
        <time>2019-02-18T07:40:47Z</time>
      </trkpt>
      <trkpt lat="45.05624" lon="2.76392">
        <ele>1771</ele>
        <time>2019-02-18T07:41:06Z</time>
      </trkpt>
      <trkpt lat="45.05627" lon="2.76385">
        <ele>1774</ele>
        <time>2019-02-18T07:41:24Z</time>
      </trkpt>
      <trkpt lat="45.05624" lon="2.76376">
        <ele>1774</ele>
        <time>2019-02-18T07:41:36Z</time>
      </trkpt>
      <trkpt lat="45.05629" lon="2.76366">
        <ele>1777</ele>
        <time>2019-02-18T07:41:54Z</time>
      </trkpt>
      <trkpt lat="45.05631" lon="2.76343">
        <ele>1780</ele>
        <time>2019-02-18T07:42:24Z</time>
      </trkpt>
      <trkpt lat="45.0563" lon="2.76332">
        <ele>1782</ele>
        <time>2019-02-18T07:42:42Z</time>
      </trkpt>
      <trkpt lat="45.05631" lon="2.76323">
        <ele>1783</ele>
        <time>2019-02-18T07:43:00Z</time>
      </trkpt>
      <trkpt lat="45.05631" lon="2.76315">
        <ele>1785</ele>
        <time>2019-02-18T07:43:18Z</time>
      </trkpt>
      <trkpt lat="45.05636" lon="2.76305">
        <ele>1787</ele>
        <time>2019-02-18T07:43:48Z</time>
      </trkpt>
      <trkpt lat="45.05639" lon="2.76283">
        <ele>1790</ele>
        <time>2019-02-18T07:44:12Z</time>
      </trkpt>
      <trkpt lat="45.05642" lon="2.76274">
        <ele>1791</ele>
        <time>2019-02-18T07:44:24Z</time>
      </trkpt>
      <trkpt lat="45.05641" lon="2.76265">
        <ele>1793</ele>
        <time>2019-02-18T07:44:36Z</time>
      </trkpt>
      <trkpt lat="45.05644" lon="2.76255">
        <ele>1795</ele>
        <time>2019-02-18T07:47:00Z</time>
      </trkpt>
      <trkpt lat="45.05645" lon="2.76248">
        <ele>1797</ele>
        <time>2019-02-18T07:47:12Z</time>
      </trkpt>
      <trkpt lat="45.05647" lon="2.76237">
        <ele>1798</ele>
        <time>2019-02-18T07:47:24Z</time>
      </trkpt>
      <trkpt lat="45.05647" lon="2.76228">
        <ele>1800</ele>
        <time>2019-02-18T07:47:36Z</time>
      </trkpt>
      <trkpt lat="45.05646" lon="2.76219">
        <ele>1803</ele>
        <time>2019-02-18T07:47:54Z</time>
      </trkpt>
      <trkpt lat="45.05652" lon="2.76215">
        <ele>1808</ele>
        <time>2019-02-18T07:48:18Z</time>
      </trkpt>
      <trkpt lat="45.05659" lon="2.76212">
        <ele>1810</ele>
        <time>2019-02-18T07:48:30Z</time>
      </trkpt>
      <trkpt lat="45.05664" lon="2.76206">
        <ele>1812</ele>
        <time>2019-02-18T07:48:42Z</time>
      </trkpt>
      <trkpt lat="45.05662" lon="2.76196">
        <ele>1814</ele>
        <time>2019-02-18T07:49:00Z</time>
      </trkpt>
      <trkpt lat="45.05665" lon="2.76184">
        <ele>1816</ele>
        <time>2019-02-18T07:49:14Z</time>
      </trkpt>
      <trkpt lat="45.05669" lon="2.76177">
        <ele>1818</ele>
        <time>2019-02-18T07:49:26Z</time>
      </trkpt>
      <trkpt lat="45.05676" lon="2.7617">
        <ele>1821</ele>
        <time>2019-02-18T07:49:45Z</time>
      </trkpt>
      <trkpt lat="45.05681" lon="2.76162">
        <ele>1824</ele>
        <time>2019-02-18T07:49:57Z</time>
      </trkpt>
      <trkpt lat="45.05687" lon="2.76152">
        <ele>1826</ele>
        <time>2019-02-18T07:50:10Z</time>
      </trkpt>
      <trkpt lat="45.05694" lon="2.76149">
        <ele>1827</ele>
        <time>2019-02-18T07:50:27Z</time>
      </trkpt>
      <trkpt lat="45.05704" lon="2.76147">
        <ele>1827</ele>
        <time>2019-02-18T07:50:39Z</time>
      </trkpt>
      <trkpt lat="45.05709" lon="2.76149">
        <ele>1827</ele>
        <time>2019-02-18T07:50:45Z</time>
      </trkpt>
      <trkpt lat="45.05717" lon="2.76153">
        <ele>1825</ele>
        <time>2019-02-18T07:50:58Z</time>
      </trkpt>
      <trkpt lat="45.05723" lon="2.76151">
        <ele>1824</ele>
        <time>2019-02-18T07:51:02Z</time>
      </trkpt>
      <trkpt lat="45.05729" lon="2.76153">
        <ele>1824</ele>
        <time>2019-02-18T07:51:06Z</time>
      </trkpt>
      <trkpt lat="45.05734" lon="2.76154">
        <ele>1823</ele>
        <time>2019-02-18T07:51:11Z</time>
      </trkpt>
      <trkpt lat="45.05739" lon="2.76153">
        <ele>1821</ele>
        <time>2019-02-18T07:51:16Z</time>
      </trkpt>
      <trkpt lat="45.05753" lon="2.76157">
        <ele>1819</ele>
        <time>2019-02-18T07:51:31Z</time>
      </trkpt>
      <trkpt lat="45.05758" lon="2.7616">
        <ele>1819</ele>
        <time>2019-02-18T07:51:37Z</time>
      </trkpt>
      <trkpt lat="45.05784" lon="2.76166">
        <ele>1822</ele>
        <time>2019-02-18T07:52:04Z</time>
      </trkpt>
      <trkpt lat="45.05792" lon="2.76163">
        <ele>1825</ele>
        <time>2019-02-18T07:52:16Z</time>
      </trkpt>
      <trkpt lat="45.05799" lon="2.76162">
        <ele>1829</ele>
        <time>2019-02-18T07:52:40Z</time>
      </trkpt>
      <trkpt lat="45.05808" lon="2.76159">
        <ele>1832</ele>
        <time>2019-02-18T07:52:58Z</time>
      </trkpt>
      <trkpt lat="45.05812" lon="2.76156">
        <ele>1835</ele>
        <time>2019-02-18T07:53:16Z</time>
      </trkpt>
      <trkpt lat="45.05819" lon="2.7615">
        <ele>1839</ele>
        <time>2019-02-18T07:53:40Z</time>
      </trkpt>
      <trkpt lat="45.05826" lon="2.76152">
        <ele>1847</ele>
        <time>2019-02-18T07:54:10Z</time>
      </trkpt>
      <trkpt lat="45.05836" lon="2.7615">
        <ele>1849</ele>
        <time>2019-02-18T07:54:36Z</time>
      </trkpt>
      <trkpt lat="45.05846" lon="2.76144">
        <ele>1850</ele>
        <time>2019-02-18T07:54:56Z</time>
      </trkpt>
      <trkpt lat="45.05852" lon="2.7614">
        <ele>1852</ele>
        <time>2019-02-18T07:55:08Z</time>
      </trkpt>
      <trkpt lat="45.05857" lon="2.76142">
        <ele>1852</ele>
        <time>2019-02-18T07:55:13Z</time>
      </trkpt>
      <trkpt lat="45.05867" lon="2.76142">
        <ele>1854</ele>
        <time>2019-02-18T07:55:29Z</time>
      </trkpt>
      <trkpt lat="45.05873" lon="2.76137">
        <ele>1855</ele>
        <time>2019-02-18T07:55:39Z</time>
      </trkpt>
      <trkpt lat="45.0588" lon="2.76134">
        <ele>1856</ele>
        <time>2019-02-18T07:55:46Z</time>
      </trkpt>
      <trkpt lat="45.05888" lon="2.76133">
        <ele>1857</ele>
        <time>2019-02-18T07:55:59Z</time>
      </trkpt>
    </trkseg>
  </trk>
  <rte>
    <name><![CDATA[4 avr. 2019 à 23:11:12]]></name>
    <cmt><![CDATA[4 avr. 2019 à 23:11:12]]></cmt>
    <desc><![CDATA[{DC1}Heure de fin	: 
Durée totale	: 0h00:00
Moyenne globale	: -
Pente moyenne	: 0.00 %
Aire incluse	: 7.4932 ha
Détails par segments
distance  | durée    | vit.moy. | vit.max. | déniv. + | déniv -
   km     | hh:mn:ss |   km/h   |   km/h   |    m     |    m
     0.81 | 00:00:00 |      0.0 |      0.0 |        0 |        0{DC2}]]></desc>
      <rtept lat="45.60077" lon="6.18221">
        <ele>1608.6</ele>
      </rtept>
      <rtept lat="45.59468" lon="6.1822">
        <ele>1760.9</ele>
      </rtept>
      <rtept lat="45.59468" lon="6.1822">
        <ele>1760.9</ele>
      </rtept>
    </rte>
  <rte>
    <name><![CDATA[10 févr. 2019 à 15:16:12]]></name>
    <cmt><![CDATA[10 févr. 2019 à 15:16:12]]></cmt>
    <desc><![CDATA[{DC1}Heure de fin	: 00:09:21
Durée totale	: -17690439h43:48
Moyenne globale	: -
Pente moyenne	: 7.00 %
Aire incluse	: 221.0936 ha
Détails par segments
distance  | durée    | vit.moy. | vit.max. | déniv. + | déniv -
   km     | hh:mn:ss |   km/h   |   km/h   |    m     |    m
     7.48 | 00:00:00 |      0.0 |      0.0 |        0 |        0{DC2}]]></desc>
      <rtept lat="45.55203" lon="5.93805">
        <ele>376</ele>
      </rtept>
      <rtept lat="45.55177" lon="5.93873">
        <ele>369</ele>
      </rtept>
      <rtept lat="45.55176" lon="5.93942">
        <ele>367</ele>
      </rtept>
      <rtept lat="45.55105" lon="5.93942">
        <ele>367</ele>
      </rtept>
      <rtept lat="45.54993" lon="5.93908">
        <ele>371</ele>
      </rtept>
      <rtept lat="45.54929" lon="5.94099">
        <ele>370</ele>
      </rtept>
      <rtept lat="45.54908" lon="5.94204">
        <ele>367</ele>
      </rtept>
      <rtept lat="45.54991" lon="5.94287">
        <ele>365</ele>
      </rtept>
      <rtept lat="45.5506" lon="5.94384">
        <ele>361</ele>
      </rtept>
      <rtept lat="45.55147" lon="5.94384">
        <ele>357</ele>
      </rtept>
      <rtept lat="45.55129" lon="5.94607">
        <ele>358</ele>
      </rtept>
      <rtept lat="45.55029" lon="5.94809">
        <ele>355</ele>
      </rtept>
      <rtept lat="45.54884" lon="5.94886">
        <ele>346</ele>
      </rtept>
      <rtept lat="45.5477" lon="5.94931">
        <ele>342</ele>
      </rtept>
      <rtept lat="45.5468" lon="5.95004">
        <ele>339</ele>
      </rtept>
      <rtept lat="45.54596" lon="5.95133">
        <ele>340</ele>
      </rtept>
      <rtept lat="45.54446" lon="5.95195">
        <ele>343</ele>
      </rtept>
      <rtept lat="45.543" lon="5.95262">
        <ele>344</ele>
      </rtept>
      <rtept lat="45.54156" lon="5.95212">
        <ele>337</ele>
      </rtept>
      <rtept lat="45.54041" lon="5.95204">
        <ele>338</ele>
      </rtept>
      <rtept lat="45.53917" lon="5.95141">
        <ele>343</ele>
      </rtept>
      <rtept lat="45.53844" lon="5.95135">
        <ele>347</ele>
      </rtept>
      <rtept lat="45.53765" lon="5.9503">
        <ele>349</ele>
      </rtept>
      <rtept lat="45.5381" lon="5.94993">
        <ele>352</ele>
      </rtept>
      <rtept lat="45.53781" lon="5.94901">
        <ele>358</ele>
      </rtept>
      <rtept lat="45.53711" lon="5.94845">
        <ele>365</ele>
      </rtept>
      <rtept lat="45.53702" lon="5.94764">
        <ele>369</ele>
      </rtept>
      <rtept lat="45.53817" lon="5.94807">
        <ele>376</ele>
      </rtept>
      <rtept lat="45.53865" lon="5.94633">
        <ele>389</ele>
      </rtept>
      <rtept lat="45.53778" lon="5.94491">
        <ele>408</ele>
      </rtept>
      <rtept lat="45.53757" lon="5.94371">
        <ele>425</ele>
      </rtept>
      <rtept lat="45.53775" lon="5.94279">
        <ele>434</ele>
      </rtept>
      <rtept lat="45.53726" lon="5.94227">
        <ele>442</ele>
      </rtept>
      <rtept lat="45.53572" lon="5.94146">
        <ele>468</ele>
      </rtept>
      <rtept lat="45.53664" lon="5.94039">
        <ele>483</ele>
      </rtept>
      <rtept lat="45.53532" lon="5.93983">
        <ele>505</ele>
      </rtept>
      <rtept lat="45.53416" lon="5.93985">
        <ele>516</ele>
      </rtept>
      <rtept lat="45.5355" lon="5.93869">
        <ele>532</ele>
      </rtept>
      <rtept lat="45.5359" lon="5.93845">
        <ele>537</ele>
      </rtept>
      <rtept lat="45.5355" lon="5.93802">
        <ele>544</ele>
      </rtept>
      <rtept lat="45.53724" lon="5.93554">
        <ele>587</ele>
      </rtept>
      <rtept lat="45.53691" lon="5.93339">
        <ele>592</ele>
      </rtept>
      <rtept lat="45.5376" lon="5.93178">
        <ele>575</ele>
      </rtept>
      <rtept lat="45.53843" lon="5.93069">
        <ele>555</ele>
      </rtept>
      <rtept lat="45.53939" lon="5.93157">
        <ele>541</ele>
      </rtept>
      <rtept lat="45.54068" lon="5.93234">
        <ele>522</ele>
      </rtept>
      <rtept lat="45.54219" lon="5.93247">
        <ele>514</ele>
      </rtept>
      <rtept lat="45.54355" lon="5.93232">
        <ele>512</ele>
      </rtept>
      <rtept lat="45.54489" lon="5.9326">
        <ele>508</ele>
      </rtept>
      <rtept lat="45.54636" lon="5.93249">
        <ele>510</ele>
      </rtept>
      <rtept lat="45.54758" lon="5.93249">
        <ele>510</ele>
      </rtept>
      <rtept lat="45.54818" lon="5.93298">
        <ele>507</ele>
      </rtept>
      <rtept lat="45.54796" lon="5.93418">
        <ele>496</ele>
      </rtept>
      <rtept lat="45.5491" lon="5.93433">
        <ele>483</ele>
      </rtept>
      <rtept lat="45.55126" lon="5.9341">
        <ele>463</ele>
      </rtept>
      <rtept lat="45.55256" lon="5.93453">
        <ele>444</ele>
      </rtept>
      <rtept lat="45.55329" lon="5.93558">
        <ele>430</ele>
      </rtept>
      <rtept lat="45.55222" lon="5.93642">
        <ele>415</ele>
      </rtept>
      <rtept lat="45.55195" lon="5.93811">
        <ele>375</ele>
      </rtept>
    </rte>
  <rte>
    <name><![CDATA[10 févr. 2019 à 15:15:48]]></name>
    <cmt><![CDATA[10 févr. 2019 à 15:15:48]]></cmt>
    <desc><![CDATA[{DC1}Heure de fin	: 00:09:21
Durée totale	: -17690439h44:12
Moyenne globale	: -
Pente moyenne	: nan %
Aire incluse	: 0.0000 ha
Détails par segments
distance  | durée    | vit.moy. | vit.max. | déniv. + | déniv -
   km     | hh:mn:ss |   km/h   |   km/h   |    m     |    m
     0.00 | 00:00:00 |      0.0 |      0.0 |        0 |        0{DC2}]]></desc>
      <rtept lat="45.5175" lon="5.93483">
        <ele>732.3</ele>
      </rtept>
    </rte>
  <rte>
    <name><![CDATA[10 févr. 2019 à 15:06:08]]></name>
    <cmt><![CDATA[10 févr. 2019 à 15:06:08]]></cmt>
    <desc><![CDATA[{DC1}Heure de fin	: 
Durée totale	: 0h00:00
Moyenne globale	: -
Pente moyenne	: 8.03 %
Aire incluse	: 204.0794 ha
Détails par segments
distance  | durée    | vit.moy. | vit.max. | déniv. + | déniv -
   km     | hh:mn:ss |   km/h   |   km/h   |    m     |    m
    12.88 | 00:00:00 |      0.0 |      0.0 |        0 |        0{DC2}]]></desc>
      <rtept lat="45.5509" lon="5.9394">
        <ele>368</ele>
      </rtept>
      <rtept lat="45.55217" lon="5.93791">
        <ele>377</ele>
      </rtept>
    </rte>
  <rte>
    <name><![CDATA[10 févr. 2019 à 14:22:06]]></name>
    <cmt><![CDATA[10 févr. 2019 à 14:22:06]]></cmt>
    <desc><![CDATA[{DC1}Heure de fin	: 00:09:21
Durée totale	: -17690438h37:54
Moyenne globale	: -
Pente moyenne	: 5.62 %
Aire incluse	: 5.7967 ha
Détails par segments
distance  | durée    | vit.moy. | vit.max. | déniv. + | déniv -
   km     | hh:mn:ss |   km/h   |   km/h   |    m     |    m
     3.30 | 00:00:00 |      0.0 |      0.0 |        0 |        0{DC2}]]></desc>
      <rtept lat="45.55169" lon="5.93089">
        <ele>415</ele>
      </rtept>
      <rtept lat="45.5518" lon="5.93905">
        <ele>366</ele>
      </rtept>
    </rte>
  <rte>
    <name><![CDATA[10 févr. 2019 à 09:50:45]]></name>
    <cmt><![CDATA[10 févr. 2019 à 09:50:45]]></cmt>
    <desc><![CDATA[{DC1}Heure de fin	: 00:09:21
Durée totale	: -17690433h09:14
Moyenne globale	: -
Pente moyenne	: 0.00 %
Aire incluse	: 50.7119 ha
Détails par segments
distance  | durée    | vit.moy. | vit.max. | déniv. + | déniv -
   km     | hh:mn:ss |   km/h   |   km/h   |    m     |    m
     4.33 | 00:00:00 |      0.0 |      0.0 |        0 |        0{DC2}]]></desc>
      <rtept lat="45.5503" lon="5.93918">
        <ele>373.6</ele>
      </rtept>
      <rtept lat="45.55191" lon="5.93893">
        <ele>366.7</ele>
      </rtept>
    </rte>
  <rte>
    <name><![CDATA[10 févr. 2019 à 09:07:08]]></name>
    <cmt><![CDATA[10 févr. 2019 à 09:07:08]]></cmt>
    <desc><![CDATA[{DC1}Heure de fin	: 00:09:21
Durée totale	: -17690433h52:52
Moyenne globale	: -
Pente moyenne	: nan %
Aire incluse	: 0.0000 ha
Détails par segments
distance  | durée    | vit.moy. | vit.max. | déniv. + | déniv -
   km     | hh:mn:ss |   km/h   |   km/h   |    m     |    m
     0.00 | 00:00:00 |      0.0 |      0.0 |        0 |        0{DC2}]]></desc>
      <rtept lat="45.55102" lon="5.93919">
        <ele>370.1</ele>
      </rtept>
    </rte>
  <rte>
    <name><![CDATA[10 févr. 2019 à 09:02:25]]></name>
    <cmt><![CDATA[10 févr. 2019 à 09:02:25]]></cmt>
    <desc><![CDATA[{DC1}Heure de fin	: 00:09:21
Durée totale	: -17690433h57:35
Moyenne globale	: -
Pente moyenne	: nan %
Aire incluse	: 0.0000 ha
Détails par segments
distance  | durée    | vit.moy. | vit.max. | déniv. + | déniv -
   km     | hh:mn:ss |   km/h   |   km/h   |    m     |    m
     0.00 | 00:00:00 |      0.0 |      0.0 |        0 |        0{DC2}]]></desc>
      <rtept lat="45.55207" lon="5.93813">
        <ele>375.2</ele>
      </rtept>
    </rte>
  <rte>
    <name><![CDATA[10 févr. 2019 à 09:00:27]]></name>
    <cmt><![CDATA[10 févr. 2019 à 09:00:27]]></cmt>
    <desc><![CDATA[{DC1}Heure de fin	: 00:09:21
Durée totale	: -17690433h59:32
Moyenne globale	: -
Pente moyenne	: nan %
Aire incluse	: 0.0000 ha
Détails par segments
distance  | durée    | vit.moy. | vit.max. | déniv. + | déniv -
   km     | hh:mn:ss |   km/h   |   km/h   |    m     |    m
     0.00 | 00:00:00 |      0.0 |      0.0 |        0 |        0{DC2}]]></desc>
      <rtept lat="45.55244" lon="5.93858">
        <ele>366.6</ele>
      </rtept>
    </rte>
</gpx>